createdAt,value
2022-12-09T00:01:17.862Z,13.18
2022-12-09T00:03:46.536Z,14.02
2022-12-09T00:06:17.449Z,14.18
2022-12-09T00:08:45.283Z,14.38
2022-12-09T00:11:13.861Z,13.88
2022-12-09T00:13:41.696Z,14.55
2022-12-09T00:16:12.635Z,13.25
2022-12-09T00:18:40.907Z,14.13
2022-12-09T00:21:15.560Z,13.00
2022-12-09T00:23:43.414Z,12.18
2022-12-09T00:26:11.545Z,12.18
2022-12-09T00:28:40.034Z,10.82
2022-12-09T00:31:10.484Z,10.27
2022-12-09T00:33:39.018Z,9.15
2022-12-09T00:36:09.343Z,8.65
2022-12-09T00:38:37.782Z,7.18
2022-12-09T00:41:06.092Z,6.00
2022-12-09T00:43:34.408Z,5.43
2022-12-09T00:46:02.861Z,4.93
2022-12-09T00:48:31.020Z,4.85
2022-12-09T00:50:59.677Z,4.78
2022-12-09T00:53:27.913Z,4.22
2022-12-09T00:55:55.804Z,4.40
2022-12-09T00:58:24.081Z,4.30
2022-12-09T01:00:54.279Z,4.55
2022-12-09T01:03:22.293Z,4.68
2022-12-09T01:05:50.517Z,4.80
2022-12-09T01:08:18.691Z,4.50
2022-12-09T01:10:46.841Z,5.40
2022-12-09T01:13:15.834Z,4.95
2022-12-09T01:15:44.611Z,4.85
2022-12-09T01:18:13.168Z,5.18
2022-12-09T01:20:40.990Z,4.47
2022-12-09T01:23:08.760Z,4.78
2022-12-09T01:25:38.343Z,4.10
2022-12-09T01:28:06.184Z,4.07
2022-12-09T01:30:33.834Z,4.15
2022-12-09T01:33:01.855Z,4.68
2022-12-09T01:35:29.971Z,4.32
2022-12-09T01:37:57.927Z,4.53
2022-12-09T01:40:25.792Z,3.85
2022-12-09T01:42:54.240Z,4.50
2022-12-09T01:45:22.492Z,4.03
2022-12-09T01:48:00.337Z,4.50
2022-12-09T01:50:29.475Z,4.45
2022-12-09T01:52:57.891Z,3.97
2022-12-09T01:55:27.908Z,4.45
2022-12-09T01:57:55.522Z,4.03
2022-12-09T02:00:23.513Z,4.20
2022-12-09T02:02:53.466Z,4.53
2022-12-09T02:05:24.579Z,4.10
2022-12-09T02:07:58.755Z,4.90
2022-12-09T02:10:28.046Z,4.90
2022-12-09T02:13:22.587Z,5.32
2022-12-09T02:16:03.305Z,6.35
2022-12-09T02:18:37.295Z,6.10
2022-12-09T02:21:12.443Z,7.15
2022-12-09T02:23:51.840Z,6.80
2022-12-09T02:26:38.145Z,7.93
2022-12-09T02:29:30.571Z,7.85
2022-12-09T02:32:07.667Z,7.93
2022-12-09T02:34:44.295Z,8.20
2022-12-09T02:37:25.437Z,8.55
2022-12-09T02:39:58.627Z,7.32
2022-12-09T02:42:32.355Z,7.95
2022-12-09T02:45:05.100Z,6.78
2022-12-09T02:47:36.923Z,7.28
2022-12-09T02:50:13.277Z,6.75
2022-12-09T02:52:42.821Z,7.47
2022-12-09T02:55:15.787Z,7.20
2022-12-09T02:57:43.577Z,8.27
2022-12-09T03:00:15.638Z,7.57
2022-12-09T03:02:47.836Z,7.75
2022-12-09T03:05:26.149Z,8.85
2022-12-09T03:08:07.112Z,8.30
2022-12-09T03:10:43.586Z,8.25
2022-12-09T03:13:50.093Z,8.40
2022-12-09T03:16:29.851Z,8.05
2022-12-09T03:19:06.957Z,8.13
2022-12-09T03:21:38.844Z,9.07
2022-12-09T03:24:10.437Z,9.88
2022-12-09T03:26:39.556Z,10.07
2022-12-09T03:29:13.680Z,9.38
2022-12-09T03:31:43.164Z,9.90
2022-12-09T03:34:16.289Z,9.43
2022-12-09T03:36:48.591Z,9.98
2022-12-09T03:39:20.592Z,9.50
2022-12-09T03:41:52.880Z,9.23
2022-12-09T03:44:23.471Z,10.60
2022-12-09T03:46:51.652Z,10.38
2022-12-09T03:49:19.575Z,9.73
2022-12-09T03:51:55.084Z,9.98
2022-12-09T03:54:35.683Z,10.13
2022-12-09T03:57:04.763Z,9.90
2022-12-09T03:59:34.922Z,9.23
2022-12-09T04:02:06.064Z,9.60
2022-12-09T04:04:38.661Z,10.20
2022-12-09T04:07:06.948Z,9.48
2022-12-09T04:09:35.935Z,9.10
2022-12-09T04:12:04.190Z,8.68
2022-12-09T04:14:32.326Z,8.55
2022-12-09T04:17:00.273Z,8.30
2022-12-09T04:19:28.372Z,8.40
2022-12-09T04:21:56.190Z,8.50
2022-12-09T04:24:24.327Z,8.57
2022-12-09T04:26:52.168Z,8.00
2022-12-09T04:29:19.984Z,8.60
2022-12-09T04:31:47.946Z,8.23
2022-12-09T04:34:16.266Z,8.27
2022-12-09T04:36:44.405Z,8.27
2022-12-09T04:39:12.142Z,7.68
2022-12-09T04:41:40.063Z,7.80
2022-12-09T04:44:07.874Z,7.40
2022-12-09T04:46:35.847Z,7.43
2022-12-09T04:49:04.177Z,6.85
2022-12-09T04:51:39.119Z,6.93
2022-12-09T04:54:12.583Z,7.15
2022-12-09T04:56:41.102Z,6.68
2022-12-09T04:59:08.926Z,6.82
2022-12-09T05:01:37.090Z,7.05
2022-12-09T05:04:05.447Z,6.65
2022-12-09T05:06:33.648Z,6.97
2022-12-09T05:09:02.182Z,6.47
2022-12-09T05:11:30.452Z,6.53
2022-12-09T05:13:58.529Z,6.20
2022-12-09T05:16:26.461Z,7.07
2022-12-09T05:18:54.723Z,6.13
2022-12-09T05:21:22.566Z,6.65
2022-12-09T05:23:50.416Z,6.63
2022-12-09T05:26:20.801Z,6.82
2022-12-09T05:28:49.386Z,6.75
2022-12-09T05:31:20.059Z,6.82
2022-12-09T05:33:49.662Z,6.75
2022-12-09T05:36:20.144Z,6.35
2022-12-09T05:38:49.067Z,7.13
2022-12-09T05:41:18.603Z,7.50
2022-12-09T05:43:46.636Z,6.50
2022-12-09T05:46:15.200Z,7.85
2022-12-09T05:48:44.329Z,7.82
2022-12-09T05:51:16.803Z,7.80
2022-12-09T05:53:44.596Z,8.18
2022-12-09T05:56:16.163Z,8.38
2022-12-09T05:58:44.412Z,9.50
2022-12-09T06:01:13.089Z,9.70
2022-12-09T06:03:45.728Z,9.25
2022-12-09T06:06:16.344Z,9.70
2022-12-09T06:08:45.926Z,10.00
2022-12-09T06:11:16.832Z,9.48
2022-12-09T06:13:45.930Z,10.25
2022-12-09T06:16:15.425Z,10.88
2022-12-09T06:18:43.633Z,11.93
2022-12-09T06:21:13.416Z,11.63
2022-12-09T06:23:42.905Z,13.52
2022-12-09T06:26:29.165Z,15.15
2022-12-09T06:28:58.426Z,15.43
2022-12-09T06:31:28.306Z,13.75
2022-12-09T06:33:58.401Z,13.98
2022-12-09T06:36:28.890Z,12.55
2022-12-09T06:39:05.945Z,13.40
2022-12-09T06:41:42.148Z,13.07
2022-12-09T06:44:15.870Z,12.20
2022-12-09T06:46:49.549Z,11.13
2022-12-09T06:49:17.531Z,9.38
2022-12-09T06:51:46.222Z,9.18
2022-12-09T06:54:14.156Z,9.68
2022-12-09T06:56:42.515Z,8.68
2022-12-09T06:59:11.255Z,8.50
2022-12-09T07:01:39.862Z,9.07
2022-12-09T07:04:08.411Z,9.52
2022-12-09T07:06:39.260Z,8.90
2022-12-09T07:09:08.913Z,8.57
2022-12-09T07:11:37.867Z,8.25
2022-12-09T07:14:06.208Z,7.38
2022-12-09T07:16:35.150Z,7.47
2022-12-09T07:19:04.386Z,6.45
2022-12-09T07:21:32.638Z,5.68
2022-12-09T07:24:02.875Z,5.32
2022-12-09T07:26:32.775Z,4.82
2022-12-09T07:29:05.232Z,4.10
2022-12-09T07:31:33.984Z,3.47
2022-12-09T07:34:04.104Z,3.58
2022-12-09T07:36:35.129Z,3.20
2022-12-09T07:39:07.092Z,3.00
2022-12-09T07:41:35.333Z,2.80
2022-12-09T07:44:04.103Z,2.88
2022-12-09T07:46:32.445Z,2.78
2022-12-09T07:49:02.742Z,2.50
2022-12-09T07:51:30.968Z,3.15
2022-12-09T07:53:59.465Z,2.92
2022-12-09T07:56:29.347Z,2.72
2022-12-09T07:58:57.599Z,2.97
2022-12-09T08:01:28.523Z,2.78
2022-12-09T08:03:57.308Z,3.13
2022-12-09T08:06:28.215Z,2.90
2022-12-09T08:09:01.849Z,2.60
2022-12-09T08:11:31.865Z,2.50
2022-12-09T08:14:08.987Z,2.17
2022-12-09T08:16:40.457Z,1.92
2022-12-09T08:19:09.027Z,2.70
2022-12-09T08:21:37.063Z,2.30
2022-12-09T08:24:07.733Z,2.10
2022-12-09T08:26:40.011Z,2.65
2022-12-09T08:29:13.597Z,2.50
2022-12-09T08:31:44.093Z,2.25
2022-12-09T08:34:13.051Z,3.20
2022-12-09T08:36:42.358Z,3.20
2022-12-09T08:39:11.596Z,3.10
2022-12-09T08:41:40.254Z,2.42
2022-12-09T08:44:17.392Z,2.55
2022-12-09T08:46:48.303Z,2.55
2022-12-09T08:49:22.342Z,2.85
2022-12-09T08:51:53.462Z,2.85
2022-12-09T08:54:21.768Z,3.70
2022-12-09T08:56:52.261Z,4.60
2022-12-09T08:59:20.325Z,5.30
2022-12-09T09:01:48.479Z,6.10
2022-12-09T09:04:20.472Z,6.80
2022-12-09T09:06:50.582Z,6.18
2022-12-09T09:09:20.304Z,5.00
2022-12-09T09:11:48.927Z,4.00
2022-12-09T09:14:17.433Z,3.47
2022-12-09T09:16:46.246Z,2.83
2022-12-09T09:19:17.610Z,3.50
2022-12-09T09:21:45.775Z,3.03
2022-12-09T09:24:16.745Z,2.35
2022-12-09T09:26:45.670Z,2.33
2022-12-09T09:29:16.009Z,2.55
2022-12-09T09:31:44.831Z,2.50
2022-12-09T09:34:13.193Z,2.35
2022-12-09T09:36:41.365Z,2.30
2022-12-09T09:39:09.787Z,2.70
2022-12-09T09:41:54.698Z,2.38
2022-12-09T09:44:25.807Z,2.15
2022-12-09T09:46:56.653Z,2.20
2022-12-09T09:49:30.913Z,2.50
2022-12-09T09:52:07.252Z,2.80
2022-12-09T09:54:35.161Z,2.50
2022-12-09T09:57:12.618Z,2.55
2022-12-09T10:00:07.268Z,2.45
2022-12-09T10:03:05.077Z,2.10
2022-12-09T10:05:41.328Z,2.03
2022-12-09T10:08:25.087Z,2.50
2022-12-09T10:11:09.122Z,2.50
2022-12-09T10:13:45.236Z,2.28
2022-12-09T10:16:25.115Z,2.35
2022-12-09T10:19:14.779Z,2.80
2022-12-09T10:21:45.525Z,3.88
2022-12-09T10:24:31.764Z,5.50
2022-12-09T10:27:12.781Z,5.00
2022-12-09T10:30:02.896Z,4.78
2022-12-09T10:32:33.939Z,4.25
2022-12-09T10:35:14.318Z,3.47
2022-12-09T10:37:42.347Z,3.08
2022-12-09T10:40:10.923Z,2.78
2022-12-09T10:43:05.872Z,3.05
2022-12-09T10:46:08.023Z,2.85
2022-12-09T10:48:34.242Z,2.83
2022-12-09T10:51:12.288Z,2.47
2022-12-09T10:54:02.925Z,2.58
2022-12-09T10:56:36.937Z,2.63
2022-12-09T10:59:13.881Z,2.50
2022-12-09T11:01:49.666Z,2.35
2022-12-09T11:04:28.136Z,1.75
2022-12-09T11:07:07.936Z,1.83
2022-12-09T11:09:39.534Z,2.33
2022-12-09T11:12:19.241Z,1.85
2022-12-09T11:14:53.432Z,1.75
2022-12-09T11:17:28.582Z,1.83
2022-12-09T11:20:26.291Z,2.00
2022-12-09T11:23:14.405Z,2.72
2022-12-09T11:26:00.243Z,3.50
2022-12-09T11:28:36.170Z,3.38
2022-12-09T11:31:32.758Z,2.70
2022-12-09T11:34:05.444Z,2.05
2022-12-09T11:36:37.274Z,2.20
2022-12-09T11:39:25.552Z,1.88
2022-12-09T11:42:17.377Z,1.77
2022-12-09T11:45:02.996Z,1.30
2022-12-09T11:48:21.130Z,1.77
2022-12-09T11:50:33.420Z,1.90
2022-12-09T11:53:11.133Z,2.38
2022-12-09T11:55:46.392Z,2.80
2022-12-09T11:58:18.358Z,2.63
2022-12-09T12:00:55.730Z,2.10
2022-12-09T12:03:36.678Z,2.10
2022-12-09T12:06:08.743Z,1.80
2022-12-09T12:08:46.722Z,1.83
2022-12-09T12:11:30.955Z,2.10
2022-12-09T12:14:13.034Z,1.73
2022-12-09T12:17:09.235Z,1.63
2022-12-09T12:19:42.134Z,1.48
2022-12-09T12:22:09.667Z,1.40
2022-12-09T12:25:17.796Z,1.70
2022-12-09T12:28:01.572Z,2.08
2022-12-09T12:30:59.963Z,1.98
2022-12-09T12:36:40.084Z,3.10
2022-12-09T12:39:28.475Z,4.38
2022-12-09T12:42:25.692Z,3.92
2022-12-09T12:45:31.439Z,4.53
2022-12-09T12:48:08.906Z,4.47
2022-12-09T12:50:57.829Z,3.53
2022-12-09T12:53:34.595Z,3.47
2022-12-09T12:56:07.885Z,3.30
2022-12-09T12:59:07.984Z,4.25
2022-12-09T13:02:01.092Z,4.20
2022-12-09T13:04:44.423Z,2.80
2022-12-09T13:07:20.948Z,3.83
2022-12-09T13:09:48.797Z,4.53
2022-12-09T13:12:45.481Z,4.07
2022-12-09T13:15:17.827Z,4.70
2022-12-09T13:17:48.441Z,5.35
2022-12-09T13:20:30.197Z,7.25
2022-12-09T13:23:12.917Z,7.35
2022-12-09T13:26:20.276Z,6.97
2022-12-09T13:28:52.028Z,9.20
2022-12-09T13:31:29.413Z,10.27
2022-12-09T13:34:26.120Z,10.45
2022-12-09T13:36:53.810Z,10.98
2022-12-09T13:39:39.993Z,10.40
2022-12-09T13:42:46.326Z,8.70
2022-12-09T13:45:16.430Z,9.35
2022-12-09T13:47:44.290Z,8.18
2022-12-09T13:50:28.958Z,8.60
2022-12-09T13:53:34.351Z,7.10
2022-12-09T13:56:17.776Z,6.47
2022-12-09T13:59:05.150Z,6.40
2022-12-09T14:01:42.029Z,5.80
2022-12-09T14:04:18.861Z,5.50
2022-12-09T14:06:46.403Z,5.32
2022-12-09T14:09:39.293Z,5.05
2022-12-09T14:12:11.906Z,6.32
2022-12-09T14:14:52.759Z,7.47
2022-12-09T14:17:27.224Z,8.65
2022-12-09T14:20:04.164Z,10.45
2022-12-09T14:25:26.509Z,10.55
2022-12-09T14:28:24.451Z,9.55
2022-12-09T14:31:02.008Z,8.32
2022-12-09T14:33:47.312Z,7.43
2022-12-09T14:36:14.905Z,7.18
2022-12-09T14:41:53.311Z,5.43
2022-12-09T14:44:39.064Z,5.13
2022-12-09T14:47:28.495Z,4.30
2022-12-09T14:50:05.909Z,5.68
2022-12-09T14:52:34.719Z,6.13
2022-12-09T14:55:09.381Z,4.63
2022-12-09T14:57:41.689Z,3.78
2022-12-09T15:00:36.220Z,3.67
2022-12-09T15:03:44.863Z,3.40
2022-12-09T15:06:16.804Z,4.28
2022-12-09T15:08:44.701Z,4.30
2022-12-09T15:11:19.503Z,4.47
2022-12-09T15:13:50.560Z,5.10
2022-12-09T15:16:21.532Z,5.10
2022-12-09T15:18:51.331Z,5.05
2022-12-09T15:21:29.608Z,4.80
2022-12-09T15:24:00.867Z,4.60
2022-12-09T15:26:33.688Z,4.38
2022-12-09T15:29:05.374Z,2.92
2022-12-09T15:31:34.698Z,3.05
2022-12-09T15:34:14.804Z,3.13
2022-12-09T15:36:47.794Z,3.05
2022-12-09T15:39:18.331Z,3.00
2022-12-09T15:42:07.271Z,3.03
2022-12-09T15:44:44.600Z,3.63
2022-12-09T15:47:18.478Z,3.17
2022-12-09T15:49:53.721Z,3.00
2022-12-09T15:52:27.649Z,9.07
2022-12-09T15:54:56.872Z,15.63
2022-12-09T15:57:28.163Z,14.30
2022-12-09T15:59:58.487Z,9.50
2022-12-09T16:02:29.875Z,6.80
2022-12-09T16:05:02.011Z,5.15
2022-12-09T16:07:33.276Z,4.72
2022-12-09T16:10:01.012Z,3.92
2022-12-09T16:12:32.740Z,2.97
2022-12-09T16:15:02.308Z,3.45
2022-12-09T16:17:38.564Z,2.92
2022-12-09T16:20:35.976Z,2.70
2022-12-09T16:23:06.237Z,2.40
2022-12-09T16:25:45.044Z,2.00
2022-12-09T16:28:22.811Z,1.70
2022-12-09T16:31:01.874Z,1.73
2022-12-09T16:33:35.497Z,2.00
2022-12-09T16:36:06.683Z,2.00
2022-12-09T16:38:37.009Z,2.42
2022-12-09T16:41:08.228Z,2.00
2022-12-09T16:43:36.900Z,1.70
2022-12-09T16:46:14.072Z,1.88
2022-12-09T16:48:42.780Z,1.80
2022-12-09T16:51:11.799Z,2.92
2022-12-09T16:53:44.663Z,3.42
2022-12-09T16:56:25.367Z,3.33
2022-12-09T16:58:54.344Z,3.50
2022-12-09T17:01:29.693Z,3.70
2022-12-09T17:04:02.838Z,3.35
2022-12-09T17:06:32.150Z,3.60
2022-12-09T17:08:59.845Z,3.40
2022-12-09T17:11:27.770Z,3.10
2022-12-09T17:13:55.452Z,3.08
2022-12-09T17:16:25.853Z,3.38
2022-12-09T17:18:53.748Z,3.47
2022-12-09T17:21:21.571Z,3.13
2022-12-09T17:23:49.317Z,3.30
2022-12-09T17:26:19.278Z,3.50
2022-12-09T17:28:49.187Z,3.20
2022-12-09T17:31:22.474Z,2.90
2022-12-09T17:33:51.413Z,2.92
2022-12-09T17:36:20.096Z,3.63
2022-12-09T17:38:48.148Z,3.67
2022-12-09T17:41:20.847Z,3.72
2022-12-09T17:43:48.652Z,4.07
2022-12-09T17:46:16.524Z,4.28
2022-12-09T17:48:44.505Z,4.60
2022-12-09T17:51:14.836Z,4.00
2022-12-09T17:53:43.334Z,4.55
2022-12-09T17:56:16.119Z,4.55
2022-12-09T17:58:44.492Z,5.18
2022-12-09T18:01:14.967Z,6.82
2022-12-09T18:03:56.040Z,5.95
2022-12-09T18:06:26.116Z,6.15
2022-12-09T18:08:54.783Z,5.72
2022-12-09T18:11:23.038Z,5.55
2022-12-09T18:13:51.138Z,6.00
2022-12-09T18:16:19.413Z,5.70
2022-12-09T18:18:47.554Z,5.95
2022-12-09T18:21:16.195Z,5.35
2022-12-09T18:23:44.267Z,5.22
2022-12-09T18:26:14.140Z,5.10
2022-12-09T18:28:44.735Z,4.82
2022-12-09T18:31:19.347Z,4.50
2022-12-09T18:33:48.341Z,4.50
2022-12-09T18:36:18.891Z,4.22
2022-12-09T18:38:47.342Z,3.90
2022-12-09T18:41:21.321Z,3.30
2022-12-09T18:43:51.431Z,3.28
2022-12-09T18:46:25.411Z,3.30
2022-12-09T18:49:02.180Z,3.35
2022-12-09T18:51:29.957Z,3.65
2022-12-09T18:53:59.004Z,3.25
2022-12-09T18:56:27.458Z,3.75
2022-12-09T18:59:11.777Z,3.65
2022-12-09T19:01:42.085Z,3.50
2022-12-09T19:04:23.656Z,3.75
2022-12-09T19:06:54.835Z,4.80
2022-12-09T19:09:35.128Z,4.30
2022-12-09T19:12:37.981Z,5.30
2022-12-09T19:14:52.784Z,5.75
2022-12-09T19:17:21.561Z,4.82
2022-12-09T19:19:49.901Z,4.82
2022-12-09T19:22:17.529Z,5.13
2022-12-09T19:24:45.362Z,5.40
2022-12-09T19:27:13.520Z,5.68
2022-12-09T19:29:41.515Z,5.47
2022-12-09T19:32:29.383Z,5.38
2022-12-09T19:37:24.480Z,5.15
2022-12-09T19:39:52.446Z,9.65
2022-12-09T19:42:20.237Z,9.88
2022-12-09T19:45:10.452Z,54.13
2022-12-09T19:47:38.594Z,114.80
2022-12-09T19:50:07.577Z,79.97
2022-12-09T19:52:35.465Z,57.63
2022-12-09T19:55:04.464Z,56.90
2022-12-09T19:57:32.202Z,43.78
2022-12-09T19:59:59.831Z,28.02
2022-12-09T20:02:27.473Z,20.25
2022-12-09T20:04:55.196Z,16.23
2022-12-09T20:07:22.918Z,13.18
2022-12-09T20:09:50.653Z,11.23
2022-12-09T20:12:18.544Z,11.27
2022-12-09T20:14:46.299Z,11.25
2022-12-09T20:17:13.964Z,14.82
2022-12-09T20:19:44.081Z,19.02
2022-12-09T20:22:11.777Z,25.63
2022-12-09T20:24:39.509Z,20.92
2022-12-09T20:27:07.211Z,16.13
2022-12-09T20:29:37.880Z,12.93
2022-12-09T20:32:08.445Z,10.38
2022-12-09T20:34:36.424Z,10.23
2022-12-09T20:37:04.635Z,10.52
2022-12-09T20:39:32.481Z,9.48
2022-12-09T20:42:00.742Z,10.90
2022-12-09T20:44:28.513Z,11.82
2022-12-09T20:46:57.043Z,11.68
2022-12-09T20:49:27.150Z,12.10
2022-12-09T20:51:55.764Z,13.82
2022-12-09T20:54:23.504Z,13.63
2022-12-09T20:56:51.658Z,13.90
2022-12-09T20:59:19.239Z,15.85
2022-12-09T21:01:47.513Z,20.15
2022-12-09T21:04:15.811Z,19.83
2022-12-09T21:06:44.053Z,14.98
2022-12-09T21:09:17.549Z,12.40
2022-12-09T21:11:46.822Z,10.43
2022-12-09T21:14:18.373Z,10.05
2022-12-09T21:16:47.399Z,8.38
2022-12-09T21:19:17.088Z,8.27
2022-12-09T21:21:48.177Z,7.93
2022-12-09T21:24:16.655Z,7.78
2022-12-09T21:26:47.308Z,8.13
2022-12-09T21:29:15.638Z,7.20
2022-12-09T21:31:44.463Z,7.63
2022-12-09T21:34:12.829Z,7.55
2022-12-09T21:36:44.317Z,7.72
2022-12-09T21:39:14.092Z,7.38
2022-12-09T21:41:42.794Z,8.30
2022-12-09T21:44:18.105Z,8.93
2022-12-09T21:46:46.418Z,8.35
2022-12-09T21:49:14.910Z,8.70
2022-12-09T21:51:43.630Z,8.38
2022-12-09T21:54:11.983Z,9.63
2022-12-09T21:56:40.072Z,9.57
2022-12-09T21:59:08.398Z,9.38
2022-12-09T22:01:39.031Z,8.30
2022-12-09T22:04:10.059Z,7.80
2022-12-09T22:06:39.124Z,7.30
2022-12-09T22:09:08.054Z,7.72
2022-12-09T22:11:37.429Z,7.13
2022-12-09T22:14:06.403Z,7.82
2022-12-09T22:16:40.811Z,8.52
2022-12-09T22:19:11.042Z,8.68
2022-12-09T22:21:39.306Z,8.90
2022-12-09T22:24:08.414Z,8.25
2022-12-09T22:26:36.043Z,7.38
2022-12-09T22:29:05.694Z,6.82
2022-12-09T22:31:37.904Z,7.70
2022-12-09T22:34:13.117Z,7.72
2022-12-09T22:36:41.262Z,7.45
2022-12-09T22:39:13.645Z,7.10
2022-12-09T22:41:41.930Z,7.93
2022-12-09T22:44:12.736Z,7.20
2022-12-09T22:46:42.573Z,8.55
2022-12-09T22:49:12.362Z,7.70
2022-12-09T22:51:41.603Z,6.97
2022-12-09T22:54:10.227Z,7.63
2022-12-09T22:56:39.985Z,7.63
2022-12-09T22:59:07.756Z,6.82
2022-12-09T23:01:37.493Z,8.23
2022-12-09T23:04:07.226Z,9.63
2022-12-09T23:06:37.826Z,9.30
2022-12-09T23:09:14.998Z,9.07
2022-12-09T23:11:42.760Z,8.25
2022-12-09T23:14:10.559Z,7.43
2022-12-09T23:16:38.218Z,7.82
2022-12-09T23:19:06.005Z,6.72
2022-12-09T23:21:36.682Z,6.30
2022-12-09T23:24:22.551Z,6.03
2022-12-09T23:26:55.901Z,6.18
2022-12-09T23:29:23.667Z,5.85
2022-12-09T23:31:51.632Z,6.78
2022-12-09T23:34:19.555Z,6.90
2022-12-09T23:36:47.492Z,6.65
2022-12-09T23:39:17.735Z,6.75
2022-12-09T23:41:46.456Z,7.20
2022-12-09T23:44:20.053Z,6.72
2022-12-09T23:46:48.086Z,6.00
2022-12-09T23:49:16.346Z,5.60
2022-12-09T23:51:44.730Z,5.63
2022-12-09T23:54:14.827Z,5.07
2022-12-09T23:56:48.055Z,4.80
2022-12-09T23:59:18.186Z,4.57
